Mount Lemmon, AZ

7:08 AM MST on September 23, 2014 (GMT -0700)
Fort Huachuca | Change Station
CLOSE
Current Station
Airport
Location: Fort Huachuca,
Elevation: 4767 ft
Nearby Weather Stations

Elev 4767 ft 31.61 °N, 110.43 °W | Updated 12 minutes ago

Clear
Clear
65 °F
Feels Like 65 °F
N
8
Wind Variable Wind from NE

Today
High -- | Low -- °F
--% Chance of Precip.
Yesterday
High -- | Low -- °F
Precip. -- in
6:12 AM 6:18 PM
Waning Crescent, 0% visible
Pressure 29.95 in
Visibility 10.0 miles
Clouds Clear
Dew Point 62 °F
Humidity 90%
Rainfall 0.00 in
Snow Depth 2 in , 0 in , 1 in
UV 0 out of 12
Pollen 7.60 out of 12
Air Quality Not available.
Flu Activity Not available.
METAR KALK 231356Z AUTO 04007KT 10SM CLR 18/17 A3020 RMK AO2 SLP140 T01830167 TSNO

More Conditions Fewer Conditions

Pressure 29.95 in
Visibility 10.0 miles
Clouds Clear
Dew Point 62 °F
Humidity 90%
Rainfall 0.00 in
Snow Depth 2 in , 0 in , 1 in
UV 0 out of 12
Pollen 7.60 out of 12
Air Quality Not available.
Flu Activity Not available.
METAR KALK 231356Z AUTO 04007KT 10SM CLR 18/17 A3020 RMK AO2 SLP140 T01830167 TSNO

More Conditions Fewer Conditions

10-Day Weather Forecast

Almanac

Astronomy

Sep. 23, 2014 Rise Set
Actual Time 6:12 AM MST 6:18 PM MST
Civil Twilight 5:47 AM MST 6:42 PM MST
Nautical Twilight 5:18 AM MST 7:11 PM MST
Astronomical Twilight 4:50 AM MST 7:40 PM MST
Moon 5:40 AM MST 6:00 PM MST
Length of Visible Light 12h 55m
Length of Day
12h 06m
Tomorrow will be 1m 58s shorter.
Waning Crescent, 0% of the Moon is Illuminated
Today
Waning Crescent
Sep 24
New
Oct 1
First Quarter
Oct 8
Full
Oct 15
Last Quarter

Today's Extremes

State Highs State Lows

Community

WunderPhotos

Upload Photos

1,755,690 photos uploaded!

Nearby

Snow Depth

Station Depth Elevation
Beaver Head 2 in 7990 ft
Happy Jack 0 in 7630 ft
Workman Creek 1 in 6900 ft
White Horse Lake 0 in 7180 ft
Snowslide Canyon 0 in 9730 ft

Earthquake Activity

City Distance Mag. Time & Date
No recent earthquake activity has been reported nearby.
Minimum magnitude displayed is 2.5.

Coastal Water Temperatures

Place Temperature
No Stations Reporting

Nearby Weather Stations